sensor_id;sensor_type;location;lat;lon;timestamp;pressure;altitude;pressure_sealevel;temperature;humidity
80139;BME280;69467;59.842;17.604;2023-06-24T00:02:19;101386.97;;;16.85;55.44
80139;BME280;69467;59.842;17.604;2023-06-24T00:04:45;101384.75;;;16.82;55.26
80139;BME280;69467;59.842;17.604;2023-06-24T00:07:11;101389.75;;;16.80;54.82
80139;BME280;69467;59.842;17.604;2023-06-24T00:09:36;101397.22;;;16.80;55.02
80139;BME280;69467;59.842;17.604;2023-06-24T00:12:02;101384.81;;;16.77;55.30
80139;BME280;69467;59.842;17.604;2023-06-24T00:14:28;101389.78;;;16.75;55.05
80139;BME280;69467;59.842;17.604;2023-06-24T00:16:54;101394.50;;;16.74;55.15
80139;BME280;69467;59.842;17.604;2023-06-24T00:19:20;101387.06;;;16.70;55.78
80139;BME280;69467;59.842;17.604;2023-06-24T00:21:50;101388.50;;;16.62;55.86
80139;BME280;69467;59.842;17.604;2023-06-24T00:24:22;101401.53;;;16.56;56.13
80139;BME280;69467;59.842;17.604;2023-06-24T00:26:55;101401.03;;;16.49;56.64
80139;BME280;69467;59.842;17.604;2023-06-24T00:29:20;101404.38;;;16.46;56.43
80139;BME280;69467;59.842;17.604;2023-06-24T00:31:45;101404.91;;;16.43;56.04
80139;BME280;69467;59.842;17.604;2023-06-24T00:34:11;101413.50;;;16.41;55.52
80139;BME280;69467;59.842;17.604;2023-06-24T00:36:36;101411.03;;;16.40;56.12
80139;BME280;69467;59.842;17.604;2023-06-24T00:39:03;101407.47;;;16.34;56.42
80139;BME280;69467;59.842;17.604;2023-06-24T00:41:29;101412.22;;;16.23;56.18
80139;BME280;69467;59.842;17.604;2023-06-24T00:43:56;101401.47;;;16.17;56.82
80139;BME280;69467;59.842;17.604;2023-06-24T00:46:23;101403.16;;;16.07;57.48
80139;BME280;69467;59.842;17.604;2023-06-24T00:48:51;101418.94;;;16.02;57.45
80139;BME280;69467;59.842;17.604;2023-06-24T00:51:17;101422.25;;;15.99;57.35
80139;BME280;69467;59.842;17.604;2023-06-24T00:53:47;101428.91;;;15.98;58.09
80139;BME280;69467;59.842;17.604;2023-06-24T00:56:13;101436.66;;;15.96;57.71
80139;BME280;69467;59.842;17.604;2023-06-24T00:58:44;101433.91;;;15.90;57.78
80139;BME280;69467;59.842;17.604;2023-06-24T01:01:09;101442.47;;;15.84;58.25
80139;BME280;69467;59.842;17.604;2023-06-24T01:03:36;101436.66;;;15.75;58.20
80139;BME280;69467;59.842;17.604;2023-06-24T01:06:02;101430.34;;;15.69;58.77
80139;BME280;69467;59.842;17.604;2023-06-24T01:08:27;101430.06;;;15.66;59.01
80139;BME280;69467;59.842;17.604;2023-06-24T01:10:53;101435.03;;;15.58;59.23
80139;BME280;69467;59.842;17.604;2023-06-24T01:13:19;101435.88;;;15.54;59.29
80139;BME280;69467;59.842;17.604;2023-06-24T01:15:45;101440.56;;;15.48;59.33
80139;BME280;69467;59.842;17.604;2023-06-24T01:18:34;101445.56;;;15.41;59.70
80139;BME280;69467;59.842;17.604;2023-06-24T01:21:07;101440.03;;;15.36;60.26
80139;BME280;69467;59.842;17.604;2023-06-24T01:32:33;101448.84;;;15.17;59.33
80139;BME280;69467;59.842;17.604;2023-06-24T01:35:23;101436.16;;;15.11;59.69
80139;BME280;69467;59.842;17.604;2023-06-24T01:37:51;101430.66;;;15.06;59.19
80139;BME280;69467;59.842;17.604;2023-06-24T01:40:27;101427.59;;;15.02;58.58
80139;BME280;69467;59.842;17.604;2023-06-24T01:42:57;101444.97;;;14.97;59.01
80139;BME280;69467;59.842;17.604;2023-06-24T01:45:26;101449.97;;;14.95;58.22
80139;BME280;69467;59.842;17.604;2023-06-24T01:48:16;101441.69;;;14.95;58.40
80139;BME280;69467;59.842;17.604;2023-06-24T01:50:49;101444.97;;;14.92;58.77
80139;BME280;69467;59.842;17.604;2023-06-24T01:53:17;101436.69;;;14.92;57.95
80139;BME280;69467;59.842;17.604;2023-06-24T01:55:45;101448.81;;;14.91;58.52
80139;BME280;69467;59.842;17.604;2023-06-24T01:58:12;101448.28;;;14.89;58.27
80139;BME280;69467;59.842;17.604;2023-06-24T02:00:39;101453.25;;;14.87;59.11
80139;BME280;69467;59.842;17.604;2023-06-24T02:03:06;101451.34;;;14.88;58.65
80139;BME280;69467;59.842;17.604;2023-06-24T02:05:33;101455.44;;;14.85;58.58
80139;BME280;69467;59.842;17.604;2023-06-24T02:07:59;101457.66;;;14.83;58.58
80139;BME280;69467;59.842;17.604;2023-06-24T02:10:27;101454.34;;;14.81;58.56
80139;BME280;69467;59.842;17.604;2023-06-24T02:12:53;101456.00;;;14.82;58.35
80139;BME280;69467;59.842;17.604;2023-06-24T02:15:21;101454.06;;;14.82;58.21
80139;BME280;69467;59.842;17.604;2023-06-24T02:17:50;101465.38;;;14.86;58.05
80139;BME280;69467;59.842;17.604;2023-06-24T02:20:17;101461.22;;;14.89;57.73
80139;BME280;69467;59.842;17.604;2023-06-24T02:22:44;101459.31;;;14.89;58.75
80139;BME280;69467;59.842;17.604;2023-06-24T02:25:10;101459.59;;;14.88;58.63
80139;BME280;69467;59.842;17.604;2023-06-24T02:27:37;101460.41;;;14.88;58.47
80139;BME280;69467;59.842;17.604;2023-06-24T02:30:04;101456.00;;;14.87;57.57
80139;BME280;69467;59.842;17.604;2023-06-24T02:32:30;101457.09;;;14.86;58.07
80139;BME280;69467;59.842;17.604;2023-06-24T02:34:56;101456.81;;;14.82;57.20
80139;BME280;69467;59.842;17.604;2023-06-24T02:37:22;101454.34;;;14.81;57.39
80139;BME280;69467;59.842;17.604;2023-06-24T02:39:48;101454.34;;;14.81;57.81
80139;BME280;69467;59.842;17.604;2023-06-24T02:42:13;101453.78;;;14.79;57.41
80139;BME280;69467;59.842;17.604;2023-06-24T02:44:39;101452.13;;;14.78;57.79
80139;BME280;69467;59.842;17.604;2023-06-24T02:47:08;101451.84;;;14.79;57.81
80139;BME280;69467;59.842;17.604;2023-06-24T02:49:35;101461.78;;;14.80;58.01
80139;BME280;69467;59.842;17.604;2023-06-24T02:52:02;101462.03;;;14.79;57.05
80139;BME280;69467;59.842;17.604;2023-06-24T02:54:28;101459.56;;;14.77;56.71
80139;BME280;69467;59.842;17.604;2023-06-24T02:56:55;101466.19;;;14.76;57.02
80139;BME280;69467;59.842;17.604;2023-06-24T02:59:23;101464.78;;;14.74;57.02
80139;BME280;69467;59.842;17.604;2023-06-24T03:01:48;101461.50;;;14.72;56.49
80139;BME280;69467;59.842;17.604;2023-06-24T03:04:15;101463.69;;;14.75;56.35
80139;BME280;69467;59.842;17.604;2023-06-24T03:06:40;101465.63;;;14.74;56.97
80139;BME280;69467;59.842;17.604;2023-06-24T03:09:06;101474.19;;;14.78;56.25
80139;BME280;69467;59.842;17.604;2023-06-24T03:11:40;101477.78;;;14.78;56.89
80139;BME280;69467;59.842;17.604;2023-06-24T03:14:06;101469.78;;;14.77;56.67
80139;BME280;69467;59.842;17.604;2023-06-24T03:16:31;101478.06;;;14.77;56.03
80139;BME280;69467;59.842;17.604;2023-06-24T03:18:56;101476.94;;;14.78;56.08
80139;BME280;69467;59.842;17.604;2023-06-24T03:21:22;101472.53;;;14.82;55.81
80139;BME280;69467;59.842;17.604;2023-06-24T03:23:53;101474.50;;;14.87;56.15
80139;BME280;69467;59.842;17.604;2023-06-24T03:26:18;101474.22;;;14.88;56.51
80139;BME280;69467;59.842;17.604;2023-06-24T03:28:44;101480.56;;;14.94;56.29
80139;BME280;69467;59.842;17.604;2023-06-24T03:31:09;101485.81;;;14.95;55.15
80139;BME280;69467;59.842;17.604;2023-06-24T03:33:35;101488.28;;;14.97;55.54
80139;BME280;69467;59.842;17.604;2023-06-24T03:36:00;101476.97;;;14.98;55.25
80139;BME280;69467;59.842;17.604;2023-06-24T03:38:25;101487.47;;;15.02;54.43
80139;BME280;69467;59.842;17.604;2023-06-24T03:40:53;101486.91;;;15.05;54.01
80139;BME280;69467;59.842;17.604;2023-06-24T03:43:18;101494.66;;;15.08;54.25
80139;BME280;69467;59.842;17.604;2023-06-24T03:45:43;101491.34;;;15.11;54.73
80139;BME280;69467;59.842;17.604;2023-06-24T03:48:10;101497.13;;;15.14;53.93
80139;BME280;69467;59.842;17.604;2023-06-24T03:50:35;101502.94;;;15.13;54.87
80139;BME280;69467;59.842;17.604;2023-06-24T03:53:01;101509.56;;;15.12;54.55
80139;BME280;69467;59.842;17.604;2023-06-24T03:55:26;101503.75;;;15.08;55.26
80139;BME280;69467;59.842;17.604;2023-06-24T03:57:52;101505.69;;;15.13;55.18
80139;BME280;69467;59.842;17.604;2023-06-24T04:00:17;101502.38;;;15.16;55.46
80139;BME280;69467;59.842;17.604;2023-06-24T04:02:46;101497.97;;;15.20;56.45
80139;BME280;69467;59.842;17.604;2023-06-24T04:05:11;101505.69;;;15.23;56.23
80139;BME280;69467;59.842;17.604;2023-06-24T04:07:37;101503.22;;;15.27;56.37
80139;BME280;69467;59.842;17.604;2023-06-24T04:10:05;101502.97;;;15.28;56.31
80139;BME280;69467;59.842;17.604;2023-06-24T04:12:34;101512.63;;;15.31;56.72
80139;BME280;69467;59.842;17.604;2023-06-24T04:15:01;101514.53;;;15.36;56.28
80139;BME280;69467;59.842;17.604;2023-06-24T04:17:28;101524.47;;;15.37;56.63
80139;BME280;69467;59.842;17.604;2023-06-24T04:19:53;101524.19;;;15.33;57.15
80139;BME280;69467;59.842;17.604;2023-06-24T04:22:19;101526.16;;;15.27;57.67
80139;BME280;69467;59.842;17.604;2023-06-24T04:24:44;101531.09;;;15.25;57.58
80139;BME280;69467;59.842;17.604;2023-06-24T04:27:09;101531.91;;;15.26;58.66
80139;BME280;69467;59.842;17.604;2023-06-24T04:29:35;101525.88;;;15.29;58.54
80139;BME280;69467;59.842;17.604;2023-06-24T04:32:00;101526.16;;;15.33;57.91
80139;BME280;69467;59.842;17.604;2023-06-24T04:34:26;101533.84;;;15.30;58.03
80139;BME280;69467;59.842;17.604;2023-06-24T04:36:51;101531.66;;;15.27;58.58
80139;BME280;69467;59.842;17.604;2023-06-24T04:39:17;101526.69;;;15.29;57.66
80139;BME280;69467;59.842;17.604;2023-06-24T04:41:42;101523.38;;;15.33;58.08
80139;BME280;69467;59.842;17.604;2023-06-24T04:44:07;101529.47;;;15.35;57.64
80139;BME280;69467;59.842;17.604;2023-06-24T04:46:33;101525.84;;;15.39;57.82
80139;BME280;69467;59.842;17.604;2023-06-24T04:48:59;101519.25;;;15.35;56.58
80139;BME280;69467;59.842;17.604;2023-06-24T04:51:25;101528.91;;;15.38;56.53
80139;BME280;69467;59.842;17.604;2023-06-24T04:53:50;101519.00;;;15.47;56.36
80139;BME280;69467;59.842;17.604;2023-06-24T04:56:15;101517.59;;;15.50;55.78
80139;BME280;69467;59.842;17.604;2023-06-24T04:58:41;101517.06;;;15.63;56.07
80139;BME280;69467;59.842;17.604;2023-06-24T05:01:06;101520.34;;;15.75;55.55
80139;BME280;69467;59.842;17.604;2023-06-24T05:03:32;101522.56;;;15.78;55.49
80139;BME280;69467;59.842;17.604;2023-06-24T05:05:57;101524.19;;;15.95;55.46
80139;BME280;69467;59.842;17.604;2023-06-24T05:08:23;101516.78;;;15.90;55.64
80139;BME280;69467;59.842;17.604;2023-06-24T05:10:48;101534.72;;;15.93;55.65
80139;BME280;69467;59.842;17.604;2023-06-24T05:13:13;101534.72;;;15.93;54.89
80139;BME280;69467;59.842;17.604;2023-06-24T05:15:39;101534.44;;;15.94;53.81
80139;BME280;69467;59.842;17.604;2023-06-24T05:18:04;101522.84;;;16.03;52.74
80139;BME280;69467;59.842;17.604;2023-06-24T05:20:29;101530.03;;;16.04;52.24
80139;BME280;69467;59.842;17.604;2023-06-24T05:22:55;101527.25;;;16.09;52.09
80139;BME280;69467;59.842;17.604;2023-06-24T05:25:20;101520.63;;;16.10;52.17
80139;BME280;69467;59.842;17.604;2023-06-24T05:27:46;101523.34;;;16.20;51.44
80139;BME280;69467;59.842;17.604;2023-06-24T05:30:12;101523.59;;;16.24;51.43
80139;BME280;69467;59.842;17.604;2023-06-24T05:32:38;101523.81;;;16.43;50.75
80139;BME280;69467;59.842;17.604;2023-06-24T05:35:03;101521.28;;;16.57;50.62
80139;BME280;69467;59.842;17.604;2023-06-24T05:37:29;101520.44;;;16.56;50.65
80139;BME280;69467;59.842;17.604;2023-06-24T05:39:54;101525.41;;;16.60;50.05
80139;BME280;69467;59.842;17.604;2023-06-24T05:42:22;101516.78;;;16.71;49.18
80139;BME280;69467;59.842;17.604;2023-06-24T05:44:48;101507.63;;;16.76;49.54
80139;BME280;69467;59.842;17.604;2023-06-24T05:47:13;101508.47;;;16.71;48.99
80139;BME280;69467;59.842;17.604;2023-06-24T05:49:39;101499.59;;;16.80;49.26
80139;BME280;69467;59.842;17.604;2023-06-24T05:52:05;101500.09;;;16.92;48.61
80139;BME280;69467;59.842;17.604;2023-06-24T05:54:30;101511.38;;;17.01;48.31
80139;BME280;69467;59.842;17.604;2023-06-24T05:56:56;101501.47;;;16.89;48.08
80139;BME280;69467;59.842;17.604;2023-06-24T05:59:21;101499.00;;;16.93;47.67
80139;BME280;69467;59.842;17.604;2023-06-24T06:01:46;101499.22;;;17.02;55.84
80139;BME280;69467;59.842;17.604;2023-06-24T06:04:12;101496.81;;;17.25;52.86
80139;BME280;69467;59.842;17.604;2023-06-24T06:06:37;101499.31;;;17.61;51.57
80139;BME280;69467;59.842;17.604;2023-06-24T06:09:03;101487.31;;;18.00;51.19
80139;BME280;69467;59.842;17.604;2023-06-24T06:11:28;101496.59;;;18.14;49.43
80139;BME280;69467;59.842;17.604;2023-06-24T06:13:54;101492.34;;;18.22;47.93
80139;BME280;69467;59.842;17.604;2023-06-24T06:16:19;101498.53;;;18.38;49.43
80139;BME280;69467;59.842;17.604;2023-06-24T06:18:45;101499.63;;;18.61;48.53
80139;BME280;69467;59.842;17.604;2023-06-24T06:21:10;101498.06;;;18.74;47.39
80139;BME280;69467;59.842;17.604;2023-06-24T06:23:35;101485.94;;;18.89;46.83
80139;BME280;69467;59.842;17.604;2023-06-24T06:26:01;101483.63;;;18.96;47.66
80139;BME280;69467;59.842;17.604;2023-06-24T06:28:26;101492.91;;;19.06;46.73
80139;BME280;69467;59.842;17.604;2023-06-24T06:30:52;101500.13;;;19.07;45.91
80139;BME280;69467;59.842;17.604;2023-06-24T06:33:17;101498.47;;;19.06;46.49
80139;BME280;69467;59.842;17.604;2023-06-24T06:35:42;101499.28;;;19.06;44.76
80139;BME280;69467;59.842;17.604;2023-06-24T06:38:08;101500.28;;;19.15;46.08
80139;BME280;69467;59.842;17.604;2023-06-24T06:40:33;101507.63;;;19.25;45.39
80139;BME280;69467;59.842;17.604;2023-06-24T06:42:58;101508.28;;;19.36;44.78
80139;BME280;69467;59.842;17.604;2023-06-24T06:45:24;101503.19;;;19.43;45.38
80139;BME280;69467;59.842;17.604;2023-06-24T06:47:50;101498.66;;;19.47;44.66
80139;BME280;69467;59.842;17.604;2023-06-24T06:50:15;101503.81;;;19.54;44.19
80139;BME280;69467;59.842;17.604;2023-06-24T06:52:41;101510.63;;;19.62;41.96
80139;BME280;69467;59.842;17.604;2023-06-24T06:55:06;101503.75;;;19.59;43.22
80139;BME280;69467;59.842;17.604;2023-06-24T06:57:32;101503.66;;;19.65;42.42
80139;BME280;69467;59.842;17.604;2023-06-24T06:59:57;101506.22;;;19.61;43.90
80139;BME280;69467;59.842;17.604;2023-06-24T07:02:23;101510.22;;;19.69;41.90
80139;BME280;69467;59.842;17.604;2023-06-24T07:04:48;101503.25;;;19.71;42.48
80139;BME280;69467;59.842;17.604;2023-06-24T07:07:13;101500.34;;;19.76;42.06
80139;BME280;69467;59.842;17.604;2023-06-24T07:09:39;101501.38;;;19.67;42.47
80139;BME280;69467;59.842;17.604;2023-06-24T07:12:06;101509.09;;;19.70;41.44
80139;BME280;69467;59.842;17.604;2023-06-24T07:14:31;101508.63;;;19.82;41.68
80139;BME280;69467;59.842;17.604;2023-06-24T07:16:57;101504.78;;;19.97;41.61
80139;BME280;69467;59.842;17.604;2023-06-24T07:19:22;101506.53;;;20.06;41.08
80139;BME280;69467;59.842;17.604;2023-06-24T07:21:47;101498.59;;;20.14;41.10
80139;BME280;69467;59.842;17.604;2023-06-24T07:24:13;101497.88;;;20.22;40.04
80139;BME280;69467;59.842;17.604;2023-06-24T07:26:38;101497.28;;;20.25;39.42
80139;BME280;69467;59.842;17.604;2023-06-24T07:29:05;101493.75;;;20.19;38.08
80139;BME280;69467;59.842;17.604;2023-06-24T07:31:31;101492.63;;;20.20;40.05
80139;BME280;69467;59.842;17.604;2023-06-24T07:33:56;101493.44;;;20.21;39.10
80139;BME280;69467;59.842;17.604;2023-06-24T07:36:21;101491.72;;;20.25;40.57
80139;BME280;69467;59.842;17.604;2023-06-24T07:38:47;101490.78;;;20.43;40.86
80139;BME280;69467;59.842;17.604;2023-06-24T07:41:12;101494.75;;;20.65;40.61
80139;BME280;69467;59.842;17.604;2023-06-24T07:43:37;101484.75;;;20.78;38.07
80139;BME280;69467;59.842;17.604;2023-06-24T07:46:04;101493.31;;;20.82;38.06
80139;BME280;69467;59.842;17.604;2023-06-24T07:48:29;101496.19;;;20.77;37.59
80139;BME280;69467;59.842;17.604;2023-06-24T07:50:54;101486.84;;;20.72;37.89
80139;BME280;69467;59.842;17.604;2023-06-24T07:53:20;101497.31;;;20.62;37.88
80139;BME280;69467;59.842;17.604;2023-06-24T07:55:45;101499.31;;;20.61;37.58
80139;BME280;69467;59.842;17.604;2023-06-24T07:58:10;101497.84;;;20.64;37.71
80139;BME280;69467;59.842;17.604;2023-06-24T08:00:36;101494.34;;;20.58;38.53
80139;BME280;69467;59.842;17.604;2023-06-24T08:03:01;101494.88;;;20.60;38.62
80139;BME280;69467;59.842;17.604;2023-06-24T08:05:27;101489.38;;;20.69;38.52
80139;BME280;69467;59.842;17.604;2023-06-24T08:07:53;101494.94;;;20.83;37.02
80139;BME280;69467;59.842;17.604;2023-06-24T08:10:18;101490.88;;;21.03;37.26
80139;BME280;69467;59.842;17.604;2023-06-24T08:12:43;101492.59;;;21.13;36.98
80139;BME280;69467;59.842;17.604;2023-06-24T08:15:09;101494.53;;;21.12;37.01
80139;BME280;69467;59.842;17.604;2023-06-24T08:17:35;101483.41;;;21.12;36.42
80139;BME280;69467;59.842;17.604;2023-06-24T08:20:03;101490.81;;;21.17;36.31
80139;BME280;69467;59.842;17.604;2023-06-24T08:22:29;101490.38;;;21.23;36.28
80139;BME280;69467;59.842;17.604;2023-06-24T08:24:55;101493.91;;;21.38;35.99
80139;BME280;69467;59.842;17.604;2023-06-24T08:27:20;101496.41;;;21.62;36.01
80139;BME280;69467;59.842;17.604;2023-06-24T08:29:45;101489.44;;;21.74;35.40
80139;BME280;69467;59.842;17.604;2023-06-24T08:32:11;101489.19;;;21.93;34.46
80139;BME280;69467;59.842;17.604;2023-06-24T08:34:36;101479.50;;;21.90;35.67
80139;BME280;69467;59.842;17.604;2023-06-24T08:37:02;101479.81;;;22.20;34.56
80139;BME280;69467;59.842;17.604;2023-06-24T08:39:27;101476.13;;;22.42;35.06
80139;BME280;69467;59.842;17.604;2023-06-24T08:41:53;101463.84;;;22.61;34.46
80139;BME280;69467;59.842;17.604;2023-06-24T08:44:19;101475.19;;;22.73;33.73
80139;BME280;69467;59.842;17.604;2023-06-24T08:46:44;101477.31;;;22.76;32.87
80139;BME280;69467;59.842;17.604;2023-06-24T08:51:51;101475.03;;;23.22;32.76
80139;BME280;69467;59.842;17.604;2023-06-24T08:54:20;101474.84;;;23.45;32.40
80139;BME280;69467;59.842;17.604;2023-06-24T08:56:46;101475.00;;;23.48;32.88
80139;BME280;69467;59.842;17.604;2023-06-24T08:59:11;101470.19;;;23.67;32.56
80139;BME280;69467;59.842;17.604;2023-06-24T09:01:37;101475.75;;;23.84;31.92
80139;BME280;69467;59.842;17.604;2023-06-24T09:04:02;101475.53;;;23.98;31.50
80139;BME280;69467;59.842;17.604;2023-06-24T09:06:29;101473.16;;;24.18;31.08
80139;BME280;69467;59.842;17.604;2023-06-24T09:08:55;101475.34;;;24.33;31.13
80139;BME280;69467;59.842;17.604;2023-06-24T09:11:25;101475.59;;;24.49;31.66
80139;BME280;69467;59.842;17.604;2023-06-24T09:13:59;101466.09;;;24.11;31.19
80139;BME280;69467;59.842;17.604;2023-06-24T09:16:26;101474.63;;;24.45;30.29
80139;BME280;69467;59.842;17.604;2023-06-24T09:18:53;101471.53;;;24.68;30.70
80139;BME280;69467;59.842;17.604;2023-06-24T09:21:25;101466.16;;;24.84;30.10
80139;BME280;69467;59.842;17.604;2023-06-24T09:23:52;101471.75;;;25.05;29.90
80139;BME280;69467;59.842;17.604;2023-06-24T09:26:18;101473.44;;;25.18;30.10
80139;BME280;69467;59.842;17.604;2023-06-24T09:28:47;101468.72;;;25.31;29.69
80139;BME280;69467;59.842;17.604;2023-06-24T09:31:14;101462.00;;;25.45;29.49
80139;BME280;69467;59.842;17.604;2023-06-24T09:33:39;101459.59;;;25.68;30.16
80139;BME280;69467;59.842;17.604;2023-06-24T09:36:05;101451.91;;;25.90;28.85
80139;BME280;69467;59.842;17.604;2023-06-24T09:38:35;101454.13;;;25.96;28.12
80139;BME280;69467;59.842;17.604;2023-06-24T09:41:05;101460.75;;;25.67;28.30
80139;BME280;69467;59.842;17.604;2023-06-24T09:43:37;101453.97;;;25.68;28.15
80139;BME280;69467;59.842;17.604;2023-06-24T09:46:06;101445.00;;;25.75;28.39
80139;BME280;69467;59.842;17.604;2023-06-24T09:48:33;101445.81;;;26.00;28.63
80139;BME280;69467;59.842;17.604;2023-06-24T09:51:04;101439.06;;;26.13;27.95
80139;BME280;69467;59.842;17.604;2023-06-24T09:53:31;101444.91;;;26.33;27.91
80139;BME280;69467;59.842;17.604;2023-06-24T09:55:59;101442.59;;;26.10;27.70
80139;BME280;69467;59.842;17.604;2023-06-24T09:58:25;101434.75;;;26.16;28.49
80139;BME280;69467;59.842;17.604;2023-06-24T10:00:52;101443.53;;;26.14;27.58
80139;BME280;69467;59.842;17.604;2023-06-24T10:03:18;101439.31;;;26.20;27.84
80139;BME280;69467;59.842;17.604;2023-06-24T10:05:44;101441.19;;;26.16;28.37
80139;BME280;69467;59.842;17.604;2023-06-24T10:08:10;101444.66;;;26.38;27.33
80139;BME280;69467;59.842;17.604;2023-06-24T10:10:36;101443.75;;;26.34;27.55
80139;BME280;69467;59.842;17.604;2023-06-24T10:13:01;101439.59;;;26.56;27.76
80139;BME280;69467;59.842;17.604;2023-06-24T10:15:27;101431.16;;;26.68;27.50
80139;BME280;69467;59.842;17.604;2023-06-24T10:17:52;101424.09;;;26.87;27.34
80139;BME280;69467;59.842;17.604;2023-06-24T10:20:24;101416.81;;;26.86;27.43
80139;BME280;69467;59.842;17.604;2023-06-24T10:22:51;101422.97;;;27.04;27.20
80139;BME280;69467;59.842;17.604;2023-06-24T10:25:16;101418.19;;;27.21;27.01
80139;BME280;69467;59.842;17.604;2023-06-24T10:27:44;101418.84;;;27.30;27.12
80139;BME280;69467;59.842;17.604;2023-06-24T10:30:19;101423.81;;;27.49;26.63
80139;BME280;69467;59.842;17.604;2023-06-24T10:32:51;101412.59;;;27.37;26.41
80139;BME280;69467;59.842;17.604;2023-06-24T10:35:26;101416.03;;;27.30;26.58
80139;BME280;69467;59.842;17.604;2023-06-24T10:37:59;101416.81;;;27.43;26.78
80139;BME280;69467;59.842;17.604;2023-06-24T10:40:38;101418.16;;;27.49;26.43
80139;BME280;69467;59.842;17.604;2023-06-24T10:45:57;101409.47;;;27.70;26.15
80139;BME280;69467;59.842;17.604;2023-06-24T10:48:26;101407.00;;;27.85;26.77
80139;BME280;69467;59.842;17.604;2023-06-24T10:50:51;101411.69;;;27.96;26.15
80139;BME280;69467;59.842;17.604;2023-06-24T10:53:17;101413.25;;;27.62;25.92
80139;BME280;69467;59.842;17.604;2023-06-24T10:55:46;101409.28;;;27.63;26.67
80139;BME280;69467;59.842;17.604;2023-06-24T10:58:13;101397.75;;;27.68;26.24
80139;BME280;69467;59.842;17.604;2023-06-24T11:00:41;101399.03;;;27.71;26.39
80139;BME280;69467;59.842;17.604;2023-06-24T11:03:10;101406.56;;;27.51;26.71
80139;BME280;69467;59.842;17.604;2023-06-24T11:05:40;101401.66;;;27.79;26.14
80139;BME280;69467;59.842;17.604;2023-06-24T11:08:06;101401.28;;;27.81;26.69
80139;BME280;69467;59.842;17.604;2023-06-24T11:10:32;101398.47;;;27.81;26.33
80139;BME280;69467;59.842;17.604;2023-06-24T11:13:04;101398.09;;;28.15;26.30
80139;BME280;69467;59.842;17.604;2023-06-24T11:15:32;101391.63;;;28.30;25.90
80139;BME280;69467;59.842;17.604;2023-06-24T11:17:58;101392.91;;;28.17;25.33
80139;BME280;69467;59.842;17.604;2023-06-24T11:20:24;101398.91;;;27.99;26.04
80139;BME280;69467;59.842;17.604;2023-06-24T11:22:49;101399.25;;;28.14;26.13
80139;BME280;69467;59.842;17.604;2023-06-24T11:25:16;101396.78;;;28.28;25.30
80139;BME280;69467;59.842;17.604;2023-06-24T11:27:42;101394.47;;;28.50;25.67
80139;BME280;69467;59.842;17.604;2023-06-24T11:30:07;101387.19;;;28.49;25.50
80139;BME280;69467;59.842;17.604;2023-06-24T11:32:41;101382.59;;;28.60;25.73
80139;BME280;69467;59.842;17.604;2023-06-24T11:35:12;101376.94;;;28.60;25.61
80139;BME280;69467;59.842;17.604;2023-06-24T11:37:41;101383.00;;;28.78;24.98
80139;BME280;69467;59.842;17.604;2023-06-24T11:40:07;101391.34;;;28.94;24.83
80139;BME280;69467;59.842;17.604;2023-06-24T11:42:40;101385.59;;;28.87;25.03
80139;BME280;69467;59.842;17.604;2023-06-24T11:45:12;101380.44;;;28.92;25.38
80139;BME280;69467;59.842;17.604;2023-06-24T11:47:39;101379.94;;;28.87;25.29
80139;BME280;69467;59.842;17.604;2023-06-24T11:50:06;101384.41;;;28.68;25.55
80139;BME280;69467;59.842;17.604;2023-06-24T11:54:58;101386.09;;;28.37;25.37
80139;BME280;69467;59.842;17.604;2023-06-24T11:57:59;101388.09;;;28.01;26.18
80139;BME280;69467;59.842;17.604;2023-06-24T12:02:54;101378.41;;;27.83;26.25
80139;BME280;69467;59.842;17.604;2023-06-24T12:05:28;101378.88;;;27.85;25.94
80139;BME280;69467;59.842;17.604;2023-06-24T12:07:58;101372.47;;;28.04;26.19
80139;BME280;69467;59.842;17.604;2023-06-24T12:10:24;101369.13;;;27.98;26.36
80139;BME280;69467;59.842;17.604;2023-06-24T12:12:50;101385.38;;;27.89;26.25
80139;BME280;69467;59.842;17.604;2023-06-24T12:15:15;101374.41;;;27.84;26.45
80139;BME280;69467;59.842;17.604;2023-06-24T12:17:41;101381.84;;;27.92;26.21
80139;BME280;69467;59.842;17.604;2023-06-24T12:20:08;101380.59;;;27.89;26.32
80139;BME280;69467;59.842;17.604;2023-06-24T12:22:33;101370.25;;;27.77;26.48
80139;BME280;69467;59.842;17.604;2023-06-24T12:24:59;101373.06;;;27.77;27.02
80139;BME280;69467;59.842;17.604;2023-06-24T12:27:24;101365.88;;;27.80;27.01
80139;BME280;69467;59.842;17.604;2023-06-24T12:29:50;101364.88;;;27.88;26.39
80139;BME280;69467;59.842;17.604;2023-06-24T12:32:15;101361.34;;;27.75;26.34
80139;BME280;69467;59.842;17.604;2023-06-24T12:34:40;101363.63;;;27.70;27.10
80139;BME280;69467;59.842;17.604;2023-06-24T12:37:06;101362.78;;;27.69;26.08
80139;BME280;69467;59.842;17.604;2023-06-24T12:39:31;101356.09;;;27.74;26.19
80139;BME280;69467;59.842;17.604;2023-06-24T12:41:56;101359.44;;;27.31;26.78
80139;BME280;69467;59.842;17.604;2023-06-24T12:44:22;101356.31;;;27.21;27.01
80139;BME280;69467;59.842;17.604;2023-06-24T12:46:47;101356.06;;;27.26;27.47
80139;BME280;69467;59.842;17.604;2023-06-24T12:49:13;101355.44;;;27.32;27.13
80139;BME280;69467;59.842;17.604;2023-06-24T12:51:38;101349.53;;;27.38;26.85
80139;BME280;69467;59.842;17.604;2023-06-24T12:54:03;101359.63;;;27.39;27.28
80139;BME280;69467;59.842;17.604;2023-06-24T12:56:29;101359.00;;;27.45;27.16
80139;BME280;69467;59.842;17.604;2023-06-24T12:58:54;101359.38;;;27.60;26.95